sensor_id;sensor_type;location;lat;lon;timestamp;P1;durP1;ratioP1;P2;durP2;ratioP2
65053;SDS011;51639;47.828;35.038;2023-04-28T00:10:12;43.23;;;18.73;;
65053;SDS011;51639;47.828;35.038;2023-04-28T00:25:14;55.63;;;23.23;;
65053;SDS011;51639;47.828;35.038;2023-04-28T00:40:16;68.47;;;24.13;;
65053;SDS011;51639;47.828;35.038;2023-04-28T00:55:18;66.53;;;25.10;;
65053;SDS011;51639;47.828;35.038;2023-04-28T01:10:22;47.47;;;19.37;;
65053;SDS011;51639;47.828;35.038;2023-04-28T01:25:24;32.97;;;15.63;;
65053;SDS011;51639;47.828;35.038;2023-04-28T01:40:26;31.37;;;15.10;;
65053;SDS011;51639;47.828;35.038;2023-04-28T01:55:28;33.97;;;14.93;;
65053;SDS011;51639;47.828;35.038;2023-04-28T02:10:30;36.83;;;14.93;;
65053;SDS011;51639;47.828;35.038;2023-04-28T02:25:33;30.53;;;14.47;;
65053;SDS011;51639;47.828;35.038;2023-04-28T02:40:35;30.23;;;13.10;;
65053;SDS011;51639;47.828;35.038;2023-04-28T02:55:37;33.03;;;14.40;;
65053;SDS011;51639;47.828;35.038;2023-04-28T03:10:39;36.90;;;13.33;;
65053;SDS011;51639;47.828;35.038;2023-04-28T03:25:41;38.60;;;14.70;;
65053;SDS011;51639;47.828;35.038;2023-04-28T03:40:43;31.87;;;12.53;;
65053;SDS011;51639;47.828;35.038;2023-04-28T03:55:45;26.63;;;12.23;;
65053;SDS011;51639;47.828;35.038;2023-04-28T04:10:47;27.23;;;11.67;;
65053;SDS011;51639;47.828;35.038;2023-04-28T04:25:49;36.83;;;14.40;;
65053;SDS011;51639;47.828;35.038;2023-04-28T04:40:51;33.13;;;13.73;;
65053;SDS011;51639;47.828;35.038;2023-04-28T04:55:53;28.60;;;13.00;;
65053;SDS011;51639;47.828;35.038;2023-04-28T05:10:55;26.73;;;11.30;;
65053;SDS011;51639;47.828;35.038;2023-04-28T05:25:56;30.93;;;12.93;;
65053;SDS011;51639;47.828;35.038;2023-04-28T05:41:05;19.27;;;9.50;;
65053;SDS011;51639;47.828;35.038;2023-04-28T05:56:19;22.33;;;11.20;;
65053;SDS011;51639;47.828;35.038;2023-04-28T06:11:21;23.10;;;11.73;;
65053;SDS011;51639;47.828;35.038;2023-04-28T06:26:23;25.97;;;13.00;;
65053;SDS011;51639;47.828;35.038;2023-04-28T06:41:26;35.17;;;16.00;;
65053;SDS011;51639;47.828;35.038;2023-04-28T06:56:29;33.93;;;14.90;;
65053;SDS011;51639;47.828;35.038;2023-04-28T07:11:31;23.97;;;11.27;;
65053;SDS011;51639;47.828;35.038;2023-04-28T07:26:34;17.27;;;8.90;;
65053;SDS011;51639;47.828;35.038;2023-04-28T07:41:36;12.20;;;6.70;;
65053;SDS011;51639;47.828;35.038;2023-04-28T07:56:38;10.87;;;5.37;;
65053;SDS011;51639;47.828;35.038;2023-04-28T08:11:40;9.10;;;4.97;;
65053;SDS011;51639;47.828;35.038;2023-04-28T08:26:44;8.03;;;5.20;;
65053;SDS011;51639;47.828;35.038;2023-04-28T08:41:46;20.37;;;6.50;;
65053;SDS011;51639;47.828;35.038;2023-04-28T08:56:48;6.90;;;3.87;;
65053;SDS011;51639;47.828;35.038;2023-04-28T09:11:51;6.83;;;3.77;;
65053;SDS011;51639;47.828;35.038;2023-04-28T09:27:06;6.60;;;4.63;;
65053;SDS011;51639;47.828;35.038;2023-04-28T09:57:37;6.83;;;4.73;;
65053;SDS011;51639;47.828;35.038;2023-04-28T10:12:39;6.90;;;4.40;;
65053;SDS011;51639;47.828;35.038;2023-04-28T10:27:42;7.27;;;4.70;;
65053;SDS011;51639;47.828;35.038;2023-04-28T10:42:50;9.23;;;5.90;;
65053;SDS011;51639;47.828;35.038;2023-04-28T11:13:29;13.70;;;6.80;;
65053;SDS011;51639;47.828;35.038;2023-04-28T11:28:35;18.07;;;8.70;;
65053;SDS011;51639;47.828;35.038;2023-04-28T11:43:38;13.63;;;7.50;;
65053;SDS011;51639;47.828;35.038;2023-04-28T12:14:13;9.17;;;5.40;;
65053;SDS011;51639;47.828;35.038;2023-04-28T12:29:39;8.53;;;4.63;;
65053;SDS011;51639;47.828;35.038;2023-04-28T12:44:53;12.90;;;6.90;;
65053;SDS011;51639;47.828;35.038;2023-04-28T12:59:57;9.23;;;3.63;;
65053;SDS011;51639;47.828;35.038;2023-04-28T13:15:02;6.33;;;3.87;;
65053;SDS011;51639;47.828;35.038;2023-04-28T13:30:39;3.67;;;2.90;;
65053;SDS011;51639;47.828;35.038;2023-04-28T13:45:44;6.13;;;3.77;;
65053;SDS011;51639;47.828;35.038;2023-04-28T14:00:46;8.67;;;6.30;;
65053;SDS011;51639;47.828;35.038;2023-04-28T14:15:50;4.43;;;3.27;;
65053;SDS011;51639;47.828;35.038;2023-04-28T14:31:03;3.63;;;2.00;;
65053;SDS011;51639;47.828;35.038;2023-04-28T14:46:09;4.67;;;2.37;;
65053;SDS011;51639;47.828;35.038;2023-04-28T15:01:11;9.13;;;5.03;;
65053;SDS011;51639;47.828;35.038;2023-04-28T15:16:14;6.93;;;3.63;;
65053;SDS011;51639;47.828;35.038;2023-04-28T15:31:16;5.97;;;3.87;;
65053;SDS011;51639;47.828;35.038;2023-04-28T15:46:19;7.73;;;4.10;;
65053;SDS011;51639;47.828;35.038;2023-04-28T16:01:22;6.57;;;4.50;;
65053;SDS011;51639;47.828;35.038;2023-04-28T16:16:24;5.47;;;3.60;;
65053;SDS011;51639;47.828;35.038;2023-04-28T16:31:29;5.13;;;3.53;;
65053;SDS011;51639;47.828;35.038;2023-04-28T16:46:32;12.97;;;6.03;;
65053;SDS011;51639;47.828;35.038;2023-04-28T17:01:34;7.77;;;4.90;;
65053;SDS011;51639;47.828;35.038;2023-04-28T17:16:37;9.30;;;5.77;;
65053;SDS011;51639;47.828;35.038;2023-04-28T17:31:38;11.13;;;6.93;;
65053;SDS011;51639;47.828;35.038;2023-04-28T17:46:41;11.43;;;6.23;;
65053;SDS011;51639;47.828;35.038;2023-04-28T18:01:43;13.33;;;7.53;;
65053;SDS011;51639;47.828;35.038;2023-04-28T18:16:45;7.60;;;3.27;;
65053;SDS011;51639;47.828;35.038;2023-04-28T18:31:48;9.63;;;3.90;;
65053;SDS011;51639;47.828;35.038;2023-04-28T18:46:50;34.50;;;17.30;;
65053;SDS011;51639;47.828;35.038;2023-04-28T19:01:52;4.67;;;3.10;;
65053;SDS011;51639;47.828;35.038;2023-04-28T19:16:54;5.70;;;3.97;;
65053;SDS011;51639;47.828;35.038;2023-04-28T19:31:56;6.97;;;4.30;;
65053;SDS011;51639;47.828;35.038;2023-04-28T19:47:01;3.43;;;1.77;;
65053;SDS011;51639;47.828;35.038;2023-04-28T20:02:05;3.17;;;1.87;;
65053;SDS011;51639;47.828;35.038;2023-04-28T20:17:08;2.20;;;1.43;;
65053;SDS011;51639;47.828;35.038;2023-04-28T20:32:11;2.53;;;1.40;;
65053;SDS011;51639;47.828;35.038;2023-04-28T20:47:13;22.97;;;13.47;;
65053;SDS011;51639;47.828;35.038;2023-04-28T21:02:16;2.97;;;1.73;;
65053;SDS011;51639;47.828;35.038;2023-04-28T21:17:17;4.60;;;1.50;;
65053;SDS011;51639;47.828;35.038;2023-04-28T21:32:19;2.50;;;1.50;;
65053;SDS011;51639;47.828;35.038;2023-04-28T21:47:22;1.60;;;1.30;;
65053;SDS011;51639;47.828;35.038;2023-04-28T22:02:24;3.27;;;1.50;;
65053;SDS011;51639;47.828;35.038;2023-04-28T22:17:26;1.90;;;1.43;;
65053;SDS011;51639;47.828;35.038;2023-04-28T22:32:28;2.87;;;1.50;;
65053;SDS011;51639;47.828;35.038;2023-04-28T22:47:31;4.40;;;1.70;;
65053;SDS011;51639;47.828;35.038;2023-04-28T23:02:34;2.30;;;1.67;;
65053;SDS011;51639;47.828;35.038;2023-04-28T23:17:37;3.03;;;1.80;;
65053;SDS011;51639;47.828;35.038;2023-04-28T23:32:39;2.80;;;1.60;;
65053;SDS011;51639;47.828;35.038;2023-04-28T23:47:42;3.10;;;1.80;;
